createdAt,value
2022-11-12T08:25:03.520Z,5.98
2022-11-12T08:28:26.698Z,5.96
2022-11-12T08:31:49.501Z,6.00
2022-11-12T08:35:11.841Z,6.05
2022-11-12T08:38:34.666Z,6.08
2022-11-12T08:41:58.495Z,6.03
2022-11-12T08:45:21.050Z,6.09
2022-11-12T08:48:43.842Z,6.10
2022-11-12T08:52:06.362Z,6.11
2022-11-12T08:55:29.149Z,6.14
2022-11-12T08:58:53.422Z,6.11
2022-11-12T09:02:16.197Z,6.22
2022-11-12T09:05:38.976Z,6.26
2022-11-12T09:09:01.633Z,6.36
2022-11-12T09:12:24.436Z,6.38
2022-11-12T09:15:48.638Z,6.42
2022-11-12T09:19:11.349Z,6.49
2022-11-12T09:22:34.674Z,6.55
2022-11-12T09:25:57.950Z,6.68
2022-11-12T09:29:20.725Z,6.81
2022-11-12T09:32:44.624Z,6.85
2022-11-12T09:36:07.383Z,7.00
2022-11-12T09:39:30.010Z,7.16
2022-11-12T09:42:54.469Z,7.21
2022-11-12T09:46:28.711Z,7.17
2022-11-12T09:49:59.185Z,7.20
2022-11-12T09:53:28.718Z,7.27
2022-11-12T09:56:52.096Z,7.35
2022-11-12T10:00:17.968Z,7.48
2022-11-12T10:03:47.035Z,7.53
2022-11-12T10:07:21.327Z,7.60
2022-11-12T10:10:48.615Z,7.58
2022-11-12T10:14:20.769Z,7.62
2022-11-12T10:17:50.949Z,7.62
2022-11-12T10:21:21.455Z,7.60
2022-11-12T10:24:46.378Z,7.66
2022-11-12T10:28:21.080Z,7.65
2022-11-12T10:31:43.908Z,7.80
2022-11-12T10:35:06.686Z,7.91
2022-11-12T10:38:30.405Z,7.93
2022-11-12T10:42:04.096Z,7.93
2022-11-12T10:45:26.936Z,7.93
2022-11-12T10:48:57.718Z,8.00
2022-11-12T10:52:24.233Z,8.10
2022-11-12T10:55:57.278Z,8.17
2022-11-12T10:59:24.440Z,8.30
2022-11-12T11:02:50.758Z,8.50
2022-11-12T11:06:23.363Z,8.74
2022-11-12T11:09:54.615Z,8.77
2022-11-12T11:13:21.506Z,8.93
2022-11-12T11:16:53.440Z,9.16
2022-11-12T11:20:28.979Z,9.41
2022-11-12T11:23:57.428Z,9.58
2022-11-12T11:27:31.018Z,9.39
2022-11-12T11:30:59.943Z,9.31
2022-11-12T11:34:36.109Z,9.00
2022-11-12T11:38:12.788Z,8.83
2022-11-12T11:41:52.757Z,8.68
2022-11-12T11:45:20.141Z,8.64
2022-11-12T11:48:56.770Z,8.64
2022-11-12T11:52:39.267Z,8.51
2022-11-12T11:56:06.530Z,8.46
2022-11-12T11:59:41.629Z,8.34
2022-11-12T12:03:18.538Z,8.29
2022-11-12T12:06:46.536Z,8.22
2022-11-12T12:10:34.753Z,8.28
2022-11-12T12:14:23.419Z,8.26
2022-11-12T12:17:59.762Z,8.13
2022-11-12T12:21:26.123Z,8.07
2022-11-12T12:24:52.671Z,8.10
2022-11-12T12:28:23.815Z,8.03
2022-11-12T12:31:51.061Z,7.88
2022-11-12T12:35:23.157Z,7.77
2022-11-12T12:38:50.087Z,7.73
2022-11-12T12:42:18.580Z,7.67
2022-11-12T12:45:44.247Z,7.68
2022-11-12T12:49:08.997Z,7.72
2022-11-12T12:52:31.786Z,7.71
2022-11-12T12:55:58.570Z,7.66
2022-11-12T12:59:23.677Z,7.54
2022-11-12T13:02:47.540Z,7.55
2022-11-12T13:06:16.613Z,7.62
2022-11-12T13:09:39.753Z,7.70
2022-11-12T13:13:05.549Z,7.74
2022-11-12T13:16:54.669Z,7.79
2022-11-12T13:20:34.743Z,7.91
2022-11-12T13:24:08.719Z,8.05
2022-11-12T13:28:01.427Z,8.15
2022-11-12T13:31:28.646Z,8.18
2022-11-12T13:34:50.998Z,8.18
2022-11-12T13:38:16.747Z,8.10
2022-11-12T13:41:50.402Z,8.13
2022-11-12T13:45:13.528Z,8.03
2022-11-12T13:48:40.296Z,8.10
2022-11-12T13:52:02.948Z,8.16
2022-11-12T13:55:27.412Z,8.23
2022-11-12T13:58:49.993Z,8.20
2022-11-12T14:02:22.563Z,8.21
2022-11-12T14:05:49.782Z,8.33
2022-11-12T14:09:26.237Z,8.39
2022-11-12T14:13:06.634Z,8.42
2022-11-12T14:16:39.339Z,8.37
2022-11-12T14:20:20.363Z,8.30
2022-11-12T14:23:46.565Z,8.15
2022-11-12T14:27:24.488Z,8.06
2022-11-12T14:30:48.635Z,8.05
2022-11-12T14:37:56.037Z,8.10
2022-11-12T14:41:22.407Z,8.10
2022-11-12T14:44:44.998Z,8.10
2022-11-12T14:48:11.156Z,8.16
2022-11-12T14:51:38.929Z,8.18
2022-11-12T14:55:10.659Z,8.11
2022-11-12T14:58:34.370Z,8.03
2022-11-12T15:02:29.553Z,8.02
2022-11-12T15:05:59.951Z,7.92
2022-11-12T15:09:34.447Z,7.84
2022-11-12T15:13:03.857Z,7.76
2022-11-12T15:16:30.880Z,7.73
2022-11-12T15:19:53.531Z,7.53
2022-11-12T15:23:20.125Z,7.46
2022-11-12T15:26:45.176Z,7.38
2022-11-12T15:30:17.799Z,7.28
2022-11-12T15:33:40.610Z,7.19
2022-11-12T15:37:06.733Z,7.16
2022-11-12T15:40:32.286Z,7.10
2022-11-12T15:43:55.100Z,7.05
2022-11-12T15:47:22.250Z,6.99
2022-11-12T15:50:45.544Z,6.98
2022-11-12T15:54:08.264Z,6.95
2022-11-12T15:57:33.641Z,7.03
2022-11-12T16:00:56.638Z,7.12
2022-11-12T16:04:19.302Z,7.18
2022-11-12T16:07:42.311Z,7.19
2022-11-12T16:11:25.293Z,7.13
2022-11-12T16:14:49.391Z,7.12
2022-11-12T16:18:12.647Z,7.15
2022-11-12T16:21:35.292Z,7.14
2022-11-12T16:24:58.392Z,7.05
2022-11-12T16:28:21.101Z,6.98
2022-11-12T16:31:45.520Z,6.95
2022-11-12T16:35:08.493Z,6.91
2022-11-12T16:38:31.329Z,6.90
2022-11-12T16:41:54.203Z,6.93
2022-11-12T16:45:17.871Z,6.94
2022-11-12T16:48:41.769Z,6.92
2022-11-12T16:52:04.466Z,6.94
2022-11-12T16:55:27.155Z,6.97
2022-11-12T16:58:50.569Z,7.01
2022-11-12T17:02:16.634Z,7.01
2022-11-12T17:05:40.571Z,6.93
2022-11-12T17:09:03.269Z,6.95
2022-11-12T17:12:26.322Z,7.00
2022-11-12T17:15:49.158Z,6.94
2022-11-12T17:19:12.171Z,6.86
2022-11-12T17:22:36.519Z,6.86
2022-11-12T17:26:03.005Z,6.85
2022-11-12T17:29:25.650Z,6.74
2022-11-12T17:32:49.011Z,6.57
2022-11-12T17:36:13.632Z,6.58
2022-11-12T17:39:37.749Z,6.57
2022-11-12T17:43:00.434Z,6.66
2022-11-12T17:46:23.383Z,6.71
2022-11-12T17:49:46.192Z,6.66
2022-11-12T17:53:09.412Z,6.63
2022-11-12T17:56:36.922Z,6.67
2022-11-12T18:00:00.140Z,6.72
2022-11-12T18:03:23.362Z,6.72
2022-11-12T18:06:45.993Z,6.67
2022-11-12T18:10:08.833Z,6.65
2022-11-12T18:13:33.744Z,6.67
2022-11-12T18:16:58.680Z,6.66
2022-11-12T18:20:21.332Z,6.66
2022-11-12T18:23:45.772Z,6.56
2022-11-12T18:27:08.563Z,6.56
2022-11-12T18:30:34.222Z,6.58
2022-11-12T18:33:57.467Z,6.65
2022-11-12T18:37:20.506Z,6.70
2022-11-12T18:40:43.173Z,6.65
2022-11-12T18:44:05.902Z,6.53
2022-11-12T18:47:30.844Z,6.45
2022-11-12T18:50:53.623Z,6.39
2022-11-12T18:54:16.333Z,6.26
2022-11-12T18:57:38.812Z,6.20
2022-11-12T19:01:04.038Z,6.23
2022-11-12T19:04:28.571Z,6.27
2022-11-12T19:07:51.197Z,6.33
2022-11-12T19:11:15.814Z,6.40
2022-11-12T19:14:38.112Z,6.45
2022-11-12T19:18:00.877Z,6.44
2022-11-12T19:21:26.512Z,6.38
2022-11-12T19:24:49.816Z,6.40
2022-11-12T19:28:12.332Z,6.43
2022-11-12T19:31:35.391Z,6.46
2022-11-12T19:34:58.408Z,6.53
2022-11-12T19:38:22.266Z,6.59
2022-11-12T19:41:45.015Z,6.61
2022-11-12T19:45:08.274Z,6.60
2022-11-12T19:48:31.876Z,6.59
2022-11-12T19:51:54.724Z,6.60
2022-11-12T19:55:19.039Z,6.54
2022-11-12T19:58:41.747Z,6.49
2022-11-12T20:02:04.407Z,6.49
2022-11-12T20:05:27.129Z,6.49
2022-11-12T20:08:49.892Z,6.50
2022-11-12T20:12:14.177Z,6.47
2022-11-12T20:15:39.678Z,6.50
2022-11-12T20:19:03.690Z,6.51
2022-11-12T20:22:31.649Z,6.54
2022-11-12T20:25:55.512Z,6.55
2022-11-12T20:29:19.514Z,6.57
2022-11-12T20:32:42.335Z,6.57
2022-11-12T20:36:06.333Z,6.55
2022-11-12T20:39:29.024Z,6.56
2022-11-12T20:42:52.403Z,6.53
2022-11-12T20:46:16.972Z,6.55
2022-11-12T20:49:39.795Z,6.58
2022-11-12T20:53:02.733Z,6.57
2022-11-12T20:56:26.946Z,6.59
2022-11-12T20:59:51.556Z,6.63
2022-11-12T21:03:16.689Z,6.65
2022-11-12T21:06:39.555Z,6.58
2022-11-12T21:10:02.498Z,6.57
2022-11-12T21:13:25.340Z,6.60
2022-11-12T21:16:48.261Z,6.66
2022-11-12T21:20:12.383Z,6.67
2022-11-12T21:23:36.644Z,6.69
2022-11-12T21:27:00.044Z,6.65
2022-11-12T21:30:22.821Z,6.63
2022-11-12T21:33:46.412Z,6.61
2022-11-12T21:37:10.799Z,6.61
2022-11-12T21:40:33.561Z,6.50
2022-11-12T21:43:56.602Z,6.51
2022-11-12T21:47:19.471Z,6.53
2022-11-12T21:50:43.042Z,6.55
2022-11-12T21:54:08.498Z,6.55
2022-11-12T21:57:31.751Z,6.53
2022-11-12T22:00:54.412Z,6.58
2022-11-12T22:04:18.562Z,6.51
2022-11-12T22:07:41.415Z,6.57
2022-11-12T22:11:07.498Z,6.53
2022-11-12T22:14:30.188Z,6.43
2022-11-12T22:17:53.276Z,6.27
2022-11-12T22:21:17.705Z,6.19
2022-11-12T22:24:40.378Z,6.16
2022-11-12T22:28:04.348Z,6.11
2022-11-12T22:31:28.713Z,6.04
2022-11-12T22:34:51.337Z,5.88
2022-11-12T22:38:13.973Z,5.83
2022-11-12T22:41:37.307Z,5.86
2022-11-12T22:45:01.206Z,5.94
2022-11-12T22:48:24.054Z,5.90
2022-11-12T22:51:46.647Z,5.94
2022-11-12T22:55:09.856Z,5.84
2022-11-12T22:58:32.626Z,5.85
2022-11-12T23:01:56.714Z,5.87
2022-11-12T23:05:19.500Z,5.86
2022-11-12T23:08:42.691Z,5.87
2022-11-12T23:12:05.364Z,5.87
2022-11-12T23:15:30.131Z,5.87
2022-11-12T23:18:55.093Z,5.95
2022-11-12T23:22:17.781Z,5.99
2022-11-12T23:25:40.871Z,6.02
2022-11-12T23:29:03.775Z,5.99
2022-11-12T23:32:26.403Z,6.02
2022-11-12T23:35:50.493Z,6.03
2022-11-12T23:39:13.156Z,6.07
2022-11-12T23:42:35.859Z,6.10
